Time,TemperatureF,DewpointF,PressureIn,WindDirection,WindDirectionDegrees,WindSpeedMPH,WindSpeedGustMPH,Humidity,HourlyPrecipIn,Conditions,Clouds,dailyrainin,SoftwareType,DateUTC
2013-07-14 00:01:00,71.4,59.5,30.20,NE,45,0.0,0.0,66,0.00,,---,0.02,VWS V14.01,2013-07-14 04:01:00,
2013-07-14 00:02:00,71.4,59.5,30.20,NE,45,0.0,0.0,66,0.00,,---,0.00,VWS V14.01,2013-07-14 04:02:00,
2013-07-14 00:03:00,71.4,59.5,30.20,NE,45,0.0,0.0,66,0.00,,---,0.00,VWS V14.01,2013-07-14 04:03:00,
2013-07-14 00:04:00,71.4,59.5,30.20,NE,45,0.0,0.0,66,0.00,,---,0.00,VWS V14.01,2013-07-14 04:04:00,
2013-07-14 00:09:00,71.4,59.5,30.20,NE,45,0.0,0.0,66,0.00,,---,0.00,VWS V14.01,2013-07-14 04:09:00,
2013-07-14 00:14:00,71.4,59.5,30.21,NE,45,0.0,0.0,66,0.00,,---,0.00,VWS V14.01,2013-07-14 04:14:00,
2013-07-14 00:19:00,71.2,59.3,30.21,NE,45,0.0,0.0,66,0.00,,---,0.00,VWS V14.01,2013-07-14 04:19:00,
2013-07-14 00:24:00,71.2,59.7,30.21,NE,45,0.0,0.0,67,0.00,,---,0.00,VWS V14.01,2013-07-14 04:24:00,
2013-07-14 00:29:00,71.2,59.7,30.21,NE,45,0.0,0.0,67,0.00,,---,0.00,VWS V14.01,2013-07-14 04:29:00,
2013-07-14 00:34:00,71.0,59.5,30.21,NE,45,0.0,0.0,67,0.00,,---,0.00,VWS V14.01,2013-07-14 04:34:00,
2013-07-14 00:39:00,70.8,59.3,30.21,NE,45,0.0,0.0,67,0.00,,---,0.00,VWS V14.01,2013-07-14 04:39:00,
2013-07-14 00:44:00,70.8,59.3,30.21,NE,45,0.0,0.0,67,0.00,,---,0.00,VWS V14.01,2013-07-14 04:44:00,
2013-07-14 00:49:00,70.7,59.2,30.20,NE,45,0.0,0.0,67,0.00,,---,0.00,VWS V14.01,2013-07-14 04:49:00,
2013-07-14 00:54:00,70.5,59.4,30.21,East,90,0.0,0.0,68,0.00,,---,0.00,VWS V14.01,2013-07-14 04:54:00,
2013-07-14 00:59:00,70.5,59.4,30.21,East,90,0.0,0.0,68,0.00,,---,0.00,VWS V14.01,2013-07-14 04:59:00,
2013-07-14 01:04:00,70.5,59.8,30.21,East,90,0.0,0.0,69,0.00,,---,0.00,VWS V14.01,2013-07-14 05:04:00,
2013-07-14 01:09:00,70.3,59.7,30.21,East,90,0.0,0.0,69,0.00,,---,0.00,VWS V14.01,2013-07-14 05:09:00,
2013-07-14 01:14:00,70.3,59.7,30.20,East,90,0.0,0.0,69,0.00,,---,0.00,VWS V14.01,2013-07-14 05:14:00,
2013-07-14 01:19:00,70.1,59.9,30.21,East,90,0.0,0.0,70,0.00,,---,0.00,VWS V14.01,2013-07-14 05:19:00,
2013-07-14 01:24:00,70.1,59.9,30.21,East,90,0.0,0.0,70,0.00,,---,0.00,VWS V14.01,2013-07-14 05:24:00,
2013-07-14 01:29:00,70.1,60.3,30.21,East,90,0.0,0.0,71,0.00,,---,0.00,VWS V14.01,2013-07-14 05:29:00,
2013-07-14 01:34:00,69.9,60.1,30.21,East,90,0.0,0.0,71,0.00,,---,0.00,VWS V14.01,2013-07-14 05:34:00,
2013-07-14 01:39:00,69.9,60.1,30.21,East,90,0.0,0.0,71,0.00,,---,0.00,VWS V14.01,2013-07-14 05:39:00,
2013-07-14 01:44:00,69.9,60.1,30.21,East,90,0.0,0.0,71,0.00,,---,0.00,VWS V14.01,2013-07-14 05:44:00,
2013-07-14 01:49:00,69.8,60.0,30.21,East,90,0.0,0.0,71,0.00,,---,0.00,VWS V14.01,2013-07-14 05:49:00,
2013-07-14 01:54:00,69.6,59.8,30.21,East,90,0.0,0.0,71,0.00,,---,0.00,VWS V14.01,2013-07-14 05:54:00,
2013-07-14 01:59:00,69.6,60.2,30.20,East,90,0.0,0.0,72,0.00,,---,0.00,VWS V14.01,2013-07-14 05:59:00,
2013-07-14 02:04:00,29.1,21.2,30.21,East,90,0.0,0.0,72,0.00,,---,0.00,VWS V14.01,2013-07-14 06:04:00,
2013-07-14 02:09:00,69.4,60.0,30.21,East,90,0.0,0.0,72,0.00,,---,0.00,VWS V14.01,2013-07-14 06:09:00,
2013-07-14 02:14:00,69.4,60.0,30.21,East,90,0.0,0.0,72,0.00,,---,0.00,VWS V14.01,2013-07-14 06:14:00,
2013-07-14 02:19:00,69.0,60.0,30.21,East,90,0.0,0.0,73,0.00,,---,0.00,VWS V14.01,2013-07-14 06:19:00,
2013-07-14 02:25:00,68.9,59.9,30.21,East,90,0.0,0.0,73,0.00,,---,0.00,VWS V14.01,2013-07-14 06:25:00,
2013-07-14 02:30:00,68.7,59.7,30.21,East,90,0.0,0.0,73,0.00,,---,0.00,VWS V14.01,2013-07-14 06:30:00,
2013-07-14 02:35:00,68.7,59.7,30.21,East,90,0.0,0.0,73,0.00,,---,0.00,VWS V14.01,2013-07-14 06:35:00,
2013-07-14 02:40:00,68.5,59.5,30.20,East,90,0.0,0.0,73,0.00,,---,0.00,VWS V14.01,2013-07-14 06:40:00,
2013-07-14 02:45:00,68.3,59.7,30.21,East,90,0.0,0.0,74,0.00,,---,0.00,VWS V14.01,2013-07-14 06:45:00,
2013-07-14 02:50:00,68.1,59.5,30.21,East,90,0.0,0.0,74,0.00,,---,0.00,VWS V14.01,2013-07-14 06:50:00,
2013-07-14 02:55:00,68.1,59.5,30.21,East,90,0.0,0.0,74,0.00,,---,0.00,VWS V14.01,2013-07-14 06:55:00,
2013-07-14 03:00:00,67.8,59.6,30.21,East,90,0.0,0.0,75,0.00,,---,0.00,VWS V14.01,2013-07-14 07:00:00,
2013-07-14 03:05:00,67.6,59.4,30.21,East,90,0.0,0.0,75,0.00,,---,0.00,VWS V14.01,2013-07-14 07:05:00,
2013-07-14 03:10:00,67.6,59.4,30.21,East,90,0.0,0.0,75,0.00,,---,0.00,VWS V14.01,2013-07-14 07:10:00,
2013-07-14 03:15:00,67.2,59.0,30.21,East,90,0.0,0.0,75,0.00,,---,0.00,VWS V14.01,2013-07-14 07:15:00,
2013-07-14 03:20:00,67.2,59.4,30.21,ENE,68,0.0,0.0,76,0.00,,---,0.00,VWS V14.01,2013-07-14 07:20:00,
2013-07-14 03:25:00,67.1,59.3,30.21,ENE,68,0.0,0.0,76,0.00,,---,0.00,VWS V14.01,2013-07-14 07:25:00,
2013-07-14 03:30:00,66.9,59.1,30.21,ENE,68,0.0,0.0,76,0.00,,---,0.00,VWS V14.01,2013-07-14 07:30:00,
2013-07-14 03:35:00,66.9,59.1,30.21,ENE,68,0.0,0.0,76,0.00,,---,0.00,VWS V14.01,2013-07-14 07:35:00,
2013-07-14 03:40:00,66.9,59.5,30.21,ENE,68,0.0,0.0,77,0.00,,---,0.00,VWS V14.01,2013-07-14 07:40:00,
2013-07-14 03:45:00,66.7,59.3,30.22,ENE,68,0.0,0.0,77,0.00,,---,0.00,VWS V14.01,2013-07-14 07:45:00,
2013-07-14 03:50:00,66.7,59.3,30.21,ENE,68,0.0,0.0,77,0.00,,---,0.00,VWS V14.01,2013-07-14 07:50:00,
2013-07-14 03:55:00,66.7,59.3,30.22,ENE,68,0.0,0.0,77,0.00,,---,0.00,VWS V14.01,2013-07-14 07:55:00,
2013-07-14 04:00:00,66.5,59.4,30.22,ENE,68,0.0,0.0,78,0.00,,---,0.00,VWS V14.01,2013-07-14 08:00:00,
2013-07-14 04:05:00,66.5,59.4,30.22,ENE,68,0.0,0.0,78,0.00,,---,0.00,VWS V14.01,2013-07-14 08:05:00,
2013-07-14 04:10:00,66.3,59.2,30.22,ENE,68,0.0,0.0,78,0.00,,---,0.00,VWS V14.01,2013-07-14 08:10:00,
2013-07-14 04:15:00,66.3,59.2,30.22,ENE,68,0.0,0.0,78,0.00,,---,0.00,VWS V14.01,2013-07-14 08:15:00,
2013-07-14 04:20:00,66.2,59.2,30.22,ENE,68,0.0,0.0,78,0.00,,---,0.00,VWS V14.01,2013-07-14 08:20:00,
2013-07-14 04:25:00,66.2,59.2,30.22,ENE,68,0.0,0.0,78,0.00,,---,0.00,VWS V14.01,2013-07-14 08:25:00,
2013-07-14 04:30:00,66.0,59.0,30.22,ENE,68,0.0,0.0,78,0.00,,---,0.00,VWS V14.01,2013-07-14 08:30:00,
2013-07-14 04:35:00,66.0,59.0,30.22,ENE,68,0.0,0.0,78,0.00,,---,0.00,VWS V14.01,2013-07-14 08:35:00,
2013-07-14 04:40:00,66.0,59.3,30.22,ENE,68,0.0,0.0,79,0.00,,---,0.00,VWS V14.01,2013-07-14 08:40:00,
2013-07-14 04:45:00,66.0,59.3,30.22,ENE,68,0.0,0.0,79,0.00,,---,0.00,VWS V14.01,2013-07-14 08:45:00,
2013-07-14 04:50:00,65.8,59.1,30.22,ENE,68,0.0,0.0,79,0.00,,---,0.00,VWS V14.01,2013-07-14 08:50:00,
2013-07-14 04:56:00,65.6,58.9,30.23,ENE,68,0.0,0.0,79,0.00,,---,0.00,VWS V14.01,2013-07-14 08:56:00,
2013-07-14 05:01:00,65.4,58.7,30.22,ENE,68,0.0,0.0,79,0.00,,---,0.00,VWS V14.01,2013-07-14 09:01:00,
2013-07-14 05:07:00,65.3,58.6,30.22,ENE,68,0.0,0.0,79,0.00,,---,0.00,VWS V14.01,2013-07-14 09:07:00,
2013-07-14 05:12:00,65.3,58.6,30.22,ENE,68,0.0,0.0,79,0.00,,---,0.00,VWS V14.01,2013-07-14 09:12:00,
2013-07-14 05:17:00,65.1,58.4,30.22,ENE,68,0.0,0.0,79,0.00,,---,0.00,VWS V14.01,2013-07-14 09:17:00,
2013-07-14 05:22:00,65.1,58.8,30.23,ENE,68,0.0,0.0,80,0.00,,---,0.00,VWS V14.01,2013-07-14 09:22:00,
2013-07-14 05:27:00,65.1,58.8,30.22,ENE,68,0.0,0.0,80,0.00,,---,0.00,VWS V14.01,2013-07-14 09:27:00,
2013-07-14 05:32:00,64.9,58.6,30.22,ENE,68,0.0,0.0,80,0.00,,---,0.00,VWS V14.01,2013-07-14 09:32:00,
2013-07-14 05:37:00,64.9,58.6,30.23,ENE,68,0.0,0.0,80,0.00,,---,0.00,VWS V14.01,2013-07-14 09:37:00,
2013-07-14 05:42:00,64.9,58.6,30.23,ENE,68,0.0,0.0,80,0.00,,---,0.00,VWS V14.01,2013-07-14 09:42:00,
2013-07-14 05:47:00,64.9,58.6,30.23,ENE,68,0.0,0.0,80,0.00,,---,0.00,VWS V14.01,2013-07-14 09:47:00,
2013-07-14 05:52:00,64.7,58.4,30.23,ENE,68,0.0,0.0,80,0.00,,---,0.00,VWS V14.01,2013-07-14 09:52:00,
2013-07-14 05:57:00,64.7,58.4,30.23,ENE,68,0.0,0.0,80,0.00,,---,0.00,VWS V14.01,2013-07-14 09:57:00,
2013-07-14 06:02:00,64.7,58.4,30.23,ENE,68,0.0,0.0,80,0.00,,---,0.00,VWS V14.01,2013-07-14 10:02:00,
2013-07-14 06:07:00,64.7,58.4,30.24,ENE,68,0.0,0.0,80,0.00,,---,0.00,VWS V14.01,2013-07-14 10:07:00,
2013-07-14 06:12:00,64.5,58.5,30.24,ENE,68,0.0,0.0,81,0.00,,---,0.00,VWS V14.01,2013-07-14 10:12:00,
2013-07-14 06:17:00,64.5,58.5,30.24,ENE,68,0.0,0.0,81,0.00,,---,0.00,VWS V14.01,2013-07-14 10:17:00,
2013-07-14 06:22:00,64.5,58.5,30.25,ENE,68,0.0,0.0,81,0.00,,---,0.00,VWS V14.01,2013-07-14 10:22:00,
2013-07-14 06:27:00,64.5,58.5,30.24,ENE,68,0.0,0.0,81,0.00,,---,0.00,VWS V14.01,2013-07-14 10:27:00,
2013-07-14 06:32:00,64.5,58.5,30.24,ENE,68,0.0,0.0,81,0.00,,---,0.00,VWS V14.01,2013-07-14 10:32:00,
2013-07-14 06:37:00,64.5,58.5,30.24,ENE,68,0.0,0.0,81,0.00,,---,0.00,VWS V14.01,2013-07-14 10:37:00,
2013-07-14 06:42:00,64.5,58.5,30.24,ENE,68,0.0,0.0,81,0.00,,---,0.00,VWS V14.01,2013-07-14 10:42:00,
2013-07-14 06:47:00,64.5,58.5,30.24,ENE,68,0.0,0.0,81,0.00,,---,0.00,VWS V14.01,2013-07-14 10:47:00,
2013-07-14 06:52:00,64.7,58.7,30.24,ENE,68,0.0,0.0,81,0.00,,---,0.00,VWS V14.01,2013-07-14 10:52:00,
2013-07-14 06:57:00,64.9,58.9,30.24,ENE,68,0.0,0.0,81,0.00,,---,0.00,VWS V14.01,2013-07-14 10:57:00,
2013-07-14 07:02:00,64.9,58.9,30.24,East,90,0.0,0.0,81,0.00,,---,0.00,VWS V14.01,2013-07-14 11:02:00,
2013-07-14 07:07:00,65.3,59.3,30.24,East,90,0.0,0.0,81,0.00,,---,0.00,VWS V14.01,2013-07-14 11:07:00,
2013-07-14 07:12:00,65.4,59.4,30.24,East,90,0.0,0.0,81,0.00,,---,0.00,VWS V14.01,2013-07-14 11:12:00,
2013-07-14 07:17:00,66.0,60.0,30.25,East,90,0.0,0.0,81,0.00,,---,0.00,VWS V14.01,2013-07-14 11:17:00,
2013-07-14 07:22:00,66.0,60.0,30.25,East,90,0.0,0.0,81,0.00,,---,0.00,VWS V14.01,2013-07-14 11:22:00,
2013-07-14 07:27:00,66.3,60.3,30.25,East,90,0.0,0.0,81,0.00,,---,0.00,VWS V14.01,2013-07-14 11:27:00,
2013-07-14 07:32:00,66.7,60.3,30.24,East,90,0.0,0.0,80,0.00,,---,0.00,VWS V14.01,2013-07-14 11:32:00,
2013-07-14 07:37:00,66.9,60.5,30.24,East,90,0.0,0.0,80,0.00,,---,0.00,VWS V14.01,2013-07-14 11:37:00,
2013-07-14 07:42:00,67.2,60.8,30.25,East,90,0.0,0.0,80,0.00,,---,0.00,VWS V14.01,2013-07-14 11:42:00,
2013-07-14 07:47:00,67.8,61.4,30.25,NE,45,0.0,0.0,80,0.00,,---,0.00,VWS V14.01,2013-07-14 11:47:00,
2013-07-14 07:52:00,67.8,61.4,30.25,NE,45,0.0,0.0,80,0.00,,---,0.00,VWS V14.01,2013-07-14 11:52:00,
2013-07-14 07:57:00,68.1,61.7,30.25,NE,45,0.0,0.0,80,0.00,,---,0.00,VWS V14.01,2013-07-14 11:57:00,
2013-07-14 08:02:00,68.7,61.9,30.25,NE,45,0.0,0.0,79,0.00,,---,0.00,VWS V14.01,2013-07-14 12:02:00,
2013-07-14 08:07:00,68.9,62.1,30.25,NE,45,0.0,0.0,79,0.00,,---,0.00,VWS V14.01,2013-07-14 12:07:00,
2013-07-14 08:12:00,69.0,62.2,30.24,NE,45,0.0,0.0,79,0.00,,---,0.00,VWS V14.01,2013-07-14 12:12:00,
2013-07-14 08:17:00,69.6,62.8,30.24,NE,45,0.0,0.0,79,0.00,,---,0.00,VWS V14.01,2013-07-14 12:17:00,
2013-07-14 08:22:00,69.8,62.6,30.25,ENE,68,0.0,0.0,78,0.00,,---,0.00,VWS V14.01,2013-07-14 12:22:00,
2013-07-14 08:27:00,70.3,63.1,30.24,SSE,158,0.0,0.0,78,0.00,,---,0.00,VWS V14.01,2013-07-14 12:27:00,
2013-07-14 08:32:00,70.7,63.5,30.25,SSE,158,0.0,0.0,78,0.00,,---,0.00,VWS V14.01,2013-07-14 12:32:00,
2013-07-14 08:37:00,70.8,63.6,30.25,SSE,158,0.0,0.0,78,0.00,,---,0.00,VWS V14.01,2013-07-14 12:37:00,
2013-07-14 08:42:00,71.4,63.8,30.25,South,180,0.0,0.0,77,0.00,,---,0.00,VWS V14.01,2013-07-14 12:42:00,
2013-07-14 08:47:00,71.9,64.3,30.25,SSE,158,0.0,0.0,77,0.00,,---,0.00,VWS V14.01,2013-07-14 12:47:00,
2013-07-14 08:52:00,72.3,64.3,30.25,SE,135,0.0,0.0,76,0.00,,---,0.00,VWS V14.01,2013-07-14 12:52:00,
2013-07-14 08:57:00,72.6,64.6,30.25,SE,135,0.0,0.0,76,0.00,,---,0.00,VWS V14.01,2013-07-14 12:57:00,
2013-07-14 09:02:00,73.2,64.8,30.25,South,180,0.0,0.0,75,0.00,,---,0.00,VWS V14.01,2013-07-14 13:02:00,
2013-07-14 09:07:00,73.4,65.0,30.25,SSE,158,0.0,0.0,75,0.00,,---,0.00,VWS V14.01,2013-07-14 13:07:00,
2013-07-14 09:12:00,73.5,65.1,30.25,SSE,158,0.0,0.0,75,0.00,,---,0.00,VWS V14.01,2013-07-14 13:12:00,
2013-07-14 09:17:00,74.3,65.5,30.25,SSE,158,0.0,0.0,74,0.00,,---,0.00,VWS V14.01,2013-07-14 13:17:00,
2013-07-14 09:22:00,74.4,65.6,30.25,SSE,158,0.0,0.0,74,0.00,,---,0.00,VWS V14.01,2013-07-14 13:22:00,
2013-07-14 09:27:00,74.8,65.6,30.25,SE,135,0.0,0.0,73,0.00,,---,0.00,VWS V14.01,2013-07-14 13:27:00,
2013-07-14 09:32:00,75.2,66.0,30.25,SSE,158,0.0,0.0,73,0.00,,---,0.00,VWS V14.01,2013-07-14 13:32:00,
2013-07-14 09:37:00,75.5,65.8,30.24,ENE,68,0.0,0.0,72,0.00,,---,0.00,VWS V14.01,2013-07-14 13:37:00,
2013-07-14 09:42:00,75.7,66.0,30.24,ENE,68,0.0,0.0,72,0.00,,---,0.00,VWS V14.01,2013-07-14 13:42:00,
2013-07-14 09:47:00,76.2,66.5,30.25,SW,225,0.0,0.0,72,0.00,,---,0.00,VWS V14.01,2013-07-14 13:47:00,
2013-07-14 09:52:00,76.6,66.5,30.24,SSE,158,0.0,0.0,71,0.00,,---,0.00,VWS V14.01,2013-07-14 13:52:00,
2013-07-14 09:57:00,76.8,66.7,30.24,SSE,158,0.0,0.0,71,0.00,,---,0.00,VWS V14.01,2013-07-14 13:57:00,
2013-07-14 10:02:00,77.1,66.6,30.24,SW,225,0.0,0.0,70,0.00,,---,0.00,VWS V14.01,2013-07-14 14:02:00,
2013-07-14 10:07:00,77.5,66.9,30.24,WSW,248,0.0,0.0,70,0.00,,---,0.00,VWS V14.01,2013-07-14 14:07:00,
2013-07-14 10:12:00,77.7,67.1,30.24,SSE,158,0.0,0.0,70,0.00,,---,0.00,VWS V14.01,2013-07-14 14:12:00,
2013-07-14 10:17:00,78.0,67.4,30.24,SSW,202,0.0,0.0,70,0.00,,---,0.00,VWS V14.01,2013-07-14 14:17:00,
2013-07-14 10:22:00,78.4,67.4,30.25,SSW,202,0.0,0.0,69,0.00,,---,0.00,VWS V14.01,2013-07-14 14:22:00,
2013-07-14 10:27:00,78.4,67.8,30.25,ESE,112,0.0,0.0,70,0.00,,---,0.00,VWS V14.01,2013-07-14 14:27:00,
2013-07-14 10:32:00,78.6,67.6,30.24,SSE,158,3.3,3.3,69,0.00,,---,0.00,VWS V14.01,2013-07-14 14:32:00,
2013-07-14 10:37:00,78.9,67.9,30.25,SE,135,0.0,0.0,69,0.00,,---,0.00,VWS V14.01,2013-07-14 14:37:00,
2013-07-14 10:42:00,79.3,67.8,30.24,WSW,248,0.0,0.0,68,0.00,,---,0.00,VWS V14.01,2013-07-14 14:42:00,
2013-07-14 10:47:00,79.5,68.0,30.24,SW,225,0.0,0.0,68,0.00,,---,0.00,VWS V14.01,2013-07-14 14:47:00,
2013-07-14 10:52:00,79.8,67.9,30.24,SW,225,5.1,5.1,67,0.00,,---,0.00,VWS V14.01,2013-07-14 14:52:00,
2013-07-14 10:57:00,79.8,67.9,30.25,SSE,158,0.0,0.0,67,0.00,,---,0.00,VWS V14.01,2013-07-14 14:57:00,
2013-07-14 11:02:00,80.2,67.8,30.25,SW,225,0.0,0.0,66,0.00,,---,0.00,VWS V14.01,2013-07-14 15:02:00,
2013-07-14 11:07:00,80.4,68.0,30.25,SSW,202,0.0,0.0,66,0.00,,---,0.00,VWS V14.01,2013-07-14 15:07:00,
2013-07-14 11:12:00,80.6,68.6,30.25,WNW,292,0.0,0.0,67,0.00,,---,0.00,VWS V14.01,2013-07-14 15:12:00,
2013-07-14 11:17:00,81.1,68.7,30.25,South,180,0.0,0.0,66,0.00,,---,0.00,VWS V14.01,2013-07-14 15:17:00,
2013-07-14 11:22:00,81.3,68.4,30.25,SW,225,0.0,0.0,65,0.00,,---,0.00,VWS V14.01,2013-07-14 15:22:00,
2013-07-14 11:27:00,81.5,68.6,30.25,WSW,248,1.5,1.5,65,0.00,,---,0.00,VWS V14.01,2013-07-14 15:27:00,
2013-07-14 11:32:00,81.6,68.7,30.25,SSE,158,0.0,0.0,65,0.00,,---,0.00,VWS V14.01,2013-07-14 15:32:00,
2013-07-14 11:37:00,82.0,69.1,30.25,SSW,202,0.0,0.0,65,0.00,,---,0.00,VWS V14.01,2013-07-14 15:37:00,
2013-07-14 11:42:00,82.2,68.8,30.25,ENE,68,0.0,0.0,64,0.00,,---,0.00,VWS V14.01,2013-07-14 15:42:00,
2013-07-14 11:47:00,82.9,69.0,30.25,SW,225,3.8,3.8,63,0.00,,---,0.00,VWS V14.01,2013-07-14 15:47:00,
2013-07-14 11:52:00,83.1,69.2,30.25,NE,45,0.0,0.0,63,0.00,,---,0.00,VWS V14.01,2013-07-14 15:52:00,
2013-07-14 11:57:00,83.3,69.4,30.25,NE,45,0.0,0.0,63,0.00,,---,0.00,VWS V14.01,2013-07-14 15:57:00,
2013-07-14 12:02:00,83.8,69.9,30.25,SSE,158,0.0,0.0,63,0.00,,---,0.00,VWS V14.01,2013-07-14 16:02:00,
2013-07-14 12:07:00,83.8,68.9,30.25,SE,135,15.4,15.4,61,0.00,,---,0.00,VWS V14.01,2013-07-14 16:07:00,
2013-07-14 12:12:00,84.0,69.1,30.25,SE,135,0.0,0.0,61,0.00,,---,0.00,VWS V14.01,2013-07-14 16:12:00,
2013-07-14 12:17:00,84.3,68.9,30.25,SW,225,0.0,0.0,60,0.00,,---,0.00,VWS V14.01,2013-07-14 16:17:00,
2013-07-14 12:22:00,84.3,68.4,30.25,NNE,22,0.0,0.0,59,0.00,,---,0.00,VWS V14.01,2013-07-14 16:22:00,
2013-07-14 12:27:00,84.5,68.6,30.25,SE,135,0.0,0.0,59,0.00,,---,0.00,VWS V14.01,2013-07-14 16:27:00,
2013-07-14 12:32:00,84.7,68.8,30.25,SSE,158,7.3,7.3,59,0.00,,---,0.00,VWS V14.01,2013-07-14 16:32:00,
2013-07-14 12:37:00,84.7,68.8,30.25,West,270,8.7,8.7,59,0.00,,---,0.00,VWS V14.01,2013-07-14 16:37:00,
2013-07-14 12:42:00,84.5,68.1,30.25,SSE,158,2.4,2.4,58,0.00,,---,0.00,VWS V14.01,2013-07-14 16:42:00,
2013-07-14 12:47:00,84.3,67.4,30.25,WSW,248,0.0,0.0,57,0.00,,---,0.00,VWS V14.01,2013-07-14 16:47:00,
2013-07-14 12:52:00,84.3,67.9,30.24,ENE,68,0.0,0.0,58,0.00,,---,0.00,VWS V14.01,2013-07-14 16:52:00,
2013-07-14 12:57:00,84.0,68.1,30.24,ENE,68,0.0,0.0,59,0.00,,---,0.00,VWS V14.01,2013-07-14 16:57:00,
2013-07-14 13:02:00,84.2,67.3,30.24,WSW,248,0.0,0.0,57,0.00,,---,0.00,VWS V14.01,2013-07-14 17:02:00,
2013-07-14 13:07:00,84.3,66.9,30.24,SW,225,0.0,0.0,56,0.00,,---,0.00,VWS V14.01,2013-07-14 17:07:00,
2013-07-14 13:12:00,84.7,67.8,30.24,SSE,158,0.0,0.0,57,0.00,,---,0.00,VWS V14.01,2013-07-14 17:12:00,
2013-07-14 13:17:00,84.9,68.0,30.24,SSE,158,0.0,0.0,57,0.00,,---,0.00,VWS V14.01,2013-07-14 17:17:00,
2013-07-14 13:22:00,85.2,67.2,30.24,North,0,0.0,0.0,55,0.00,,---,0.00,VWS V14.01,2013-07-14 17:22:00,
2013-07-14 13:27:00,85.2,66.7,30.24,SW,225,0.0,0.0,54,0.00,,---,0.00,VWS V14.01,2013-07-14 17:27:00,
2013-07-14 13:32:00,85.2,67.2,30.24,NNE,22,0.0,0.0,55,0.00,,---,0.00,VWS V14.01,2013-07-14 17:32:00,
2013-07-14 13:37:00,85.2,67.8,30.24,NE,45,9.8,9.8,56,0.00,,---,0.00,VWS V14.01,2013-07-14 17:37:00,
2013-07-14 13:42:00,85.8,68.3,30.24,ENE,68,0.0,11.6,56,0.00,,---,0.00,VWS V14.01,2013-07-14 17:42:00,
2013-07-14 13:47:00,85.8,67.8,30.24,WSW,248,0.0,0.0,55,0.00,,---,0.00,VWS V14.01,2013-07-14 17:47:00,
2013-07-14 13:52:00,86.1,68.6,30.24,SSE,158,3.8,3.8,56,0.00,,---,0.00,VWS V14.01,2013-07-14 17:52:00,
2013-07-14 13:57:00,86.5,69.0,30.23,SSE,158,18.1,18.1,56,0.00,,---,0.00,VWS V14.01,2013-07-14 17:57:00,
2013-07-14 14:02:00,86.7,68.6,30.23,SSE,158,1.3,12.9,55,0.00,,---,0.00,VWS V14.01,2013-07-14 18:02:00,
2013-07-14 14:07:00,86.9,68.8,30.24,ENE,68,0.0,0.0,55,0.00,,---,0.00,VWS V14.01,2013-07-14 18:07:00,
2013-07-14 14:12:00,87.0,68.4,30.24,ESE,112,11.6,11.6,54,0.00,,---,0.00,VWS V14.01,2013-07-14 18:12:00,
2013-07-14 14:17:00,86.9,68.3,30.23,West,270,0.8,12.9,54,0.00,,---,0.00,VWS V14.01,2013-07-14 18:17:00,
2013-07-14 14:22:00,86.7,67.5,30.23,West,270,7.6,7.6,53,0.00,,---,0.00,VWS V14.01,2013-07-14 18:22:00,
2013-07-14 14:27:00,86.5,67.3,30.23,SW,225,0.0,0.0,53,0.00,,---,0.00,VWS V14.01,2013-07-14 18:27:00,
2013-07-14 14:32:00,86.5,67.3,30.23,SW,225,0.0,0.0,53,0.00,,---,0.00,VWS V14.01,2013-07-14 18:32:00,
2013-07-14 14:37:00,86.5,67.9,30.23,SSE,158,1.3,1.3,54,0.00,,---,0.00,VWS V14.01,2013-07-14 18:37:00,
2013-07-14 14:42:00,86.3,67.7,30.23,South,180,0.0,0.0,54,0.00,,---,0.00,VWS V14.01,2013-07-14 18:42:00,
2013-07-14 14:47:00,86.7,68.1,30.23,South,180,1.5,1.5,54,0.00,,---,0.00,VWS V14.01,2013-07-14 18:47:00,
2013-07-14 14:52:00,86.9,68.3,30.23,SSW,202,1.5,1.5,54,0.00,,---,0.00,VWS V14.01,2013-07-14 18:52:00,
2013-07-14 14:57:00,87.0,67.8,30.23,SW,225,0.0,4.0,53,0.00,,---,0.00,VWS V14.01,2013-07-14 18:57:00,
2013-07-14 15:02:00,87.4,68.2,30.23,East,90,0.0,11.8,53,0.00,,---,0.00,VWS V14.01,2013-07-14 19:02:00,
2013-07-14 15:08:00,87.9,68.1,30.23,SSW,202,1.3,1.3,52,0.00,,---,0.00,VWS V14.01,2013-07-14 19:08:00,
2013-07-14 15:13:00,88.1,67.7,30.23,SSE,158,6.4,6.4,51,0.00,,---,0.00,VWS V14.01,2013-07-14 19:13:00,
2013-07-14 15:18:00,88.3,67.3,30.22,SW,225,1.5,1.5,50,0.00,,---,0.00,VWS V14.01,2013-07-14 19:18:00,
2013-07-14 15:23:00,88.3,67.9,30.22,NE,45,0.0,0.0,51,0.00,,---,0.00,VWS V14.01,2013-07-14 19:23:00,
2013-07-14 15:28:00,88.3,67.9,30.22,SW,225,18.5,18.5,51,0.00,,---,0.00,VWS V14.01,2013-07-14 19:28:00,
2013-07-14 15:33:00,88.7,68.3,30.22,SSE,158,12.0,12.0,51,0.00,,---,0.00,VWS V14.01,2013-07-14 19:33:00,
2013-07-14 15:38:00,89.2,68.7,30.22,NNE,22,1.3,1.3,51,0.00,,---,0.00,VWS V14.01,2013-07-14 19:38:00,
2013-07-14 15:43:00,89.2,68.2,30.22,West,270,15.6,15.6,50,0.00,,---,0.00,VWS V14.01,2013-07-14 19:43:00,
2013-07-14 15:48:00,89.2,68.7,30.22,ESE,112,16.1,16.1,51,0.00,,---,0.00,VWS V14.01,2013-07-14 19:48:00,
2013-07-14 15:53:00,89.2,68.7,30.22,SSE,158,22.1,22.1,51,0.00,,---,0.00,VWS V14.01,2013-07-14 19:53:00,
2013-07-14 15:58:00,89.4,68.3,30.21,SSE,158,7.1,7.1,50,0.00,,---,0.00,VWS V14.01,2013-07-14 19:58:00,
2013-07-14 16:03:00,89.4,68.3,30.21,SSE,158,20.3,20.3,50,0.00,,---,0.00,VWS V14.01,2013-07-14 20:03:00,
2013-07-14 16:08:00,89.4,68.3,30.21,East,90,16.5,19.4,50,0.00,,---,0.00,VWS V14.01,2013-07-14 20:08:00,
2013-07-14 16:13:00,89.4,67.7,30.21,WSW,248,7.1,7.1,49,0.00,,---,0.00,VWS V14.01,2013-07-14 20:13:00,
2013-07-14 16:18:00,89.2,67.6,30.21,SSW,202,0.0,0.0,49,0.00,,---,0.00,VWS V14.01,2013-07-14 20:18:00,
2013-07-14 16:23:00,89.2,68.7,30.21,SW,225,0.0,8.7,51,0.00,,---,0.00,VWS V14.01,2013-07-14 20:23:00,
2013-07-14 16:28:00,89.4,68.9,30.21,NE,45,5.5,5.5,51,0.00,,---,0.00,VWS V14.01,2013-07-14 20:28:00,
2013-07-14 16:33:00,89.7,69.2,30.21,SSE,158,0.0,0.0,51,0.00,,---,0.00,VWS V14.01,2013-07-14 20:33:00,
2013-07-14 16:38:00,90.1,70.1,30.21,NNE,22,0.0,18.1,52,0.00,,---,0.00,VWS V14.01,2013-07-14 20:38:00,
2013-07-14 16:43:00,90.5,69.3,30.21,ESE,112,19.4,19.4,50,0.00,,---,0.00,VWS V14.01,2013-07-14 20:43:00,
2013-07-14 16:48:00,90.6,69.4,30.21,ESE,112,16.5,16.5,50,0.00,,---,0.00,VWS V14.01,2013-07-14 20:48:00,
2013-07-14 16:53:00,91.0,70.4,30.21,NE,45,17.2,17.2,51,0.00,,---,0.00,VWS V14.01,2013-07-14 20:53:00,
2013-07-14 16:58:00,91.0,69.2,30.21,South,180,0.0,0.0,49,0.00,,---,0.00,VWS V14.01,2013-07-14 20:58:00,
2013-07-14 17:03:00,90.6,68.8,30.21,SSE,158,0.0,0.0,49,0.00,,---,0.00,VWS V14.01,2013-07-14 21:03:00,
2013-07-14 17:08:00,90.5,68.8,30.21,WSW,248,0.0,0.0,49,0.00,,---,0.00,VWS V14.01,2013-07-14 21:08:00,
2013-07-14 17:13:00,90.6,68.2,30.21,SSW,202,4.2,4.2,48,0.00,,---,0.00,VWS V14.01,2013-07-14 21:13:00,
2013-07-14 17:18:00,90.6,67.6,30.21,South,180,2.0,2.0,47,0.00,,---,0.00,VWS V14.01,2013-07-14 21:18:00,
2013-07-14 17:24:00,90.8,68.4,30.21,SSW,202,10.9,10.9,48,0.00,,---,0.00,VWS V14.01,2013-07-14 21:24:00,
2013-07-14 17:29:00,91.0,68.0,30.21,West,270,20.3,20.3,47,0.00,,---,0.00,VWS V14.01,2013-07-14 21:29:00,
2013-07-14 17:34:00,91.0,68.0,30.21,SW,225,2.9,5.5,47,0.00,,---,0.00,VWS V14.01,2013-07-14 21:34:00,
2013-07-14 17:39:00,91.2,68.2,30.21,South,180,16.3,16.3,47,0.00,,---,0.00,VWS V14.01,2013-07-14 21:39:00,
2013-07-14 17:44:00,92.1,69.0,30.21,SW,225,12.3,12.3,47,0.00,,---,0.00,VWS V14.01,2013-07-14 21:44:00,
2013-07-14 17:49:00,92.8,69.6,30.21,SSW,202,2.6,19.4,47,0.00,,---,0.00,VWS V14.01,2013-07-14 21:49:00,
2013-07-14 17:54:00,93.7,70.4,30.21,West,270,0.0,0.0,47,0.00,,---,0.00,VWS V14.01,2013-07-14 21:54:00,
2013-07-14 17:59:00,96.0,72.5,30.21,SW,225,15.6,15.6,47,0.00,,---,0.00,VWS V14.01,2013-07-14 21:59:00,
2013-07-14 18:04:00,97.7,72.8,30.21,ESE,112,13.4,13.4,45,0.00,,---,0.00,VWS V14.01,2013-07-14 22:04:00,
2013-07-14 18:09:00,99.1,73.4,30.21,NE,45,0.0,0.0,44,0.00,,---,0.00,VWS V14.01,2013-07-14 22:09:00,
2013-07-14 18:14:00,100.2,75.0,30.21,ENE,68,7.1,7.6,45,0.00,,---,0.00,VWS V14.01,2013-07-14 22:14:00,
2013-07-14 18:19:00,100.9,75.0,30.21,ENE,68,2.9,5.3,44,0.00,,---,0.00,VWS V14.01,2013-07-14 22:19:00,
2013-07-14 18:24:00,99.6,74.5,30.21,NNE,22,8.9,8.9,45,0.00,,---,0.00,VWS V14.01,2013-07-14 22:24:00,
2013-07-14 18:30:00,99.1,74.7,30.20,NE,45,10.9,10.9,46,0.00,,---,0.00,VWS V14.01,2013-07-14 22:30:00,
2013-07-14 18:35:00,99.5,74.4,30.20,NE,45,0.0,0.0,45,0.00,,---,0.00,VWS V14.01,2013-07-14 22:35:00,
2013-07-14 18:40:00,100.9,75.0,30.21,East,90,0.8,0.8,44,0.00,,---,0.00,VWS V14.01,2013-07-14 22:40:00,
2013-07-14 18:45:00,101.4,74.8,30.20,NE,45,0.0,0.0,43,0.00,,---,0.00,VWS V14.01,2013-07-14 22:45:00,
2013-07-14 18:50:00,101.8,75.1,30.20,ESE,112,0.0,0.0,43,0.00,,---,0.00,VWS V14.01,2013-07-14 22:50:00,
2013-07-14 18:56:00,102.3,75.6,30.20,ENE,68,0.0,0.0,43,0.00,,---,0.00,VWS V14.01,2013-07-14 22:56:00,
2013-07-14 19:01:00,102.7,75.9,30.20,ENE,68,0.0,0.0,43,0.00,,---,0.00,VWS V14.01,2013-07-14 23:01:00,
2013-07-14 19:06:00,102.9,75.4,30.20,ENE,68,0.0,0.0,42,0.00,,---,0.00,VWS V14.01,2013-07-14 23:06:00,
2013-07-14 19:12:00,102.7,75.2,30.20,WSW,248,16.7,16.7,42,0.00,,---,0.00,VWS V14.01,2013-07-14 23:12:00,
2013-07-14 19:17:00,102.5,74.3,30.20,ENE,68,1.1,1.1,41,0.00,,---,0.00,VWS V14.01,2013-07-14 23:17:00,
2013-07-14 19:22:00,102.0,73.9,30.20,ENE,68,12.7,12.7,41,0.00,,---,0.00,VWS V14.01,2013-07-14 23:22:00,
2013-07-14 19:27:00,100.7,74.1,30.20,WSW,248,1.5,1.5,43,0.00,,---,0.00,VWS V14.01,2013-07-14 23:27:00,
2013-07-14 19:33:00,99.3,72.9,30.20,WSW,248,2.0,2.0,43,0.00,,---,0.00,VWS V14.01,2013-07-14 23:33:00,
2013-07-14 19:38:00,96.4,71.6,30.20,WSW,248,0.0,0.0,45,0.00,,---,0.00,VWS V14.01,2013-07-14 23:38:00,
2013-07-14 19:43:00,94.8,71.4,30.20,NE,45,8.0,8.0,47,0.00,,---,0.00,VWS V14.01,2013-07-14 23:43:00,
2013-07-14 19:48:00,93.3,70.7,30.20,NE,45,0.0,0.0,48,0.00,,---,0.00,VWS V14.01,2013-07-14 23:48:00,
2013-07-14 19:53:00,91.5,70.2,30.20,East,90,0.0,0.0,50,0.00,,---,0.00,VWS V14.01,2013-07-14 23:53:00,
2013-07-14 19:58:00,90.8,70.2,30.20,East,90,0.8,0.8,51,0.00,,---,0.00,VWS V14.01,2013-07-14 23:58:00,
2013-07-14 20:03:00,90.1,70.1,30.20,NE,45,0.8,0.8,52,0.00,,---,0.00,VWS V14.01,2013-07-15 00:03:00,
2013-07-14 20:08:00,89.0,69.1,30.20,NE,45,0.0,0.0,52,0.00,,---,0.00,VWS V14.01,2013-07-15 00:08:00,
2013-07-14 20:13:00,88.3,69.0,30.20,NE,45,0.0,0.0,53,0.00,,---,0.00,VWS V14.01,2013-07-15 00:13:00,
2013-07-14 20:18:00,87.8,69.1,30.20,NE,45,0.0,0.0,54,0.00,,---,0.00,VWS V14.01,2013-07-15 00:18:00,
2013-07-14 20:23:00,87.0,68.4,30.20,NE,45,0.0,0.0,54,0.00,,---,0.00,VWS V14.01,2013-07-15 00:23:00,
2013-07-14 20:28:00,86.7,68.6,30.20,NE,45,0.0,0.0,55,0.00,,---,0.00,VWS V14.01,2013-07-15 00:28:00,
2013-07-14 20:33:00,86.5,68.4,30.20,NE,45,0.0,0.0,55,0.00,,---,0.00,VWS V14.01,2013-07-15 00:33:00,
2013-07-14 20:38:00,85.8,68.3,30.20,ENE,68,0.0,0.0,56,0.00,,---,0.00,VWS V14.01,2013-07-15 00:38:00,
2013-07-14 20:43:00,85.8,68.8,30.20,NE,45,0.0,0.0,57,0.00,,---,0.00,VWS V14.01,2013-07-15 00:43:00,
2013-07-14 20:48:00,85.4,68.4,30.20,NE,45,0.0,0.0,57,0.00,,---,0.00,VWS V14.01,2013-07-15 00:48:00,
2013-07-14 20:53:00,85.1,68.7,30.20,NNE,22,0.0,0.0,58,0.00,,---,0.00,VWS V14.01,2013-07-15 00:53:00,
2013-07-14 20:58:00,84.7,68.3,30.21,ENE,68,0.0,0.0,58,0.00,,---,0.00,VWS V14.01,2013-07-15 00:58:00,
2013-07-14 21:03:00,84.5,68.6,30.20,ENE,68,0.0,0.0,59,0.00,,---,0.00,VWS V14.01,2013-07-15 01:03:00,
2013-07-14 21:08:00,84.0,68.1,30.20,ENE,68,0.0,0.0,59,0.00,,---,0.00,VWS V14.01,2013-07-15 01:08:00,
2013-07-14 21:13:00,83.8,68.4,30.20,ENE,68,0.0,0.0,60,0.00,,---,0.00,VWS V14.01,2013-07-15 01:13:00,
2013-07-14 21:18:00,83.4,68.1,30.20,ENE,68,0.0,0.0,60,0.00,,---,0.00,VWS V14.01,2013-07-15 01:18:00,
2013-07-14 21:23:00,83.1,68.3,30.20,NE,45,0.0,0.0,61,0.00,,---,0.00,VWS V14.01,2013-07-15 01:23:00,
2013-07-14 21:28:00,82.9,68.1,30.20,NE,45,0.0,0.0,61,0.00,,---,0.00,VWS V14.01,2013-07-15 01:28:00,
2013-07-14 21:33:00,82.5,67.7,30.21,NE,45,0.0,0.0,61,0.00,,---,0.00,VWS V14.01,2013-07-15 01:33:00,
2013-07-14 21:38:00,82.4,67.6,30.21,NE,45,0.0,0.0,61,0.00,,---,0.00,VWS V14.01,2013-07-15 01:38:00,
2013-07-14 21:43:00,82.2,67.9,30.21,NE,45,0.0,0.0,62,0.00,,---,0.00,VWS V14.01,2013-07-15 01:43:00,
2013-07-14 21:48:00,82.0,67.7,30.21,NE,45,0.0,0.0,62,0.00,,---,0.00,VWS V14.01,2013-07-15 01:48:00,
2013-07-14 21:53:00,81.6,67.8,30.21,NE,45,0.0,0.0,63,0.00,,---,0.00,VWS V14.01,2013-07-15 01:53:00,
2013-07-14 21:58:00,81.5,67.7,30.22,NE,45,0.0,0.0,63,0.00,,---,0.00,VWS V14.01,2013-07-15 01:58:00,
2013-07-14 22:03:00,81.3,68.0,30.22,NE,45,0.0,0.0,64,0.00,,---,0.00,VWS V14.01,2013-07-15 02:03:00,
2013-07-14 22:08:00,81.1,67.8,30.22,NE,45,0.0,0.0,64,0.00,,---,0.00,VWS V14.01,2013-07-15 02:08:00,
2013-07-14 22:13:00,80.9,68.0,30.22,NE,45,0.0,0.0,65,0.00,,---,0.00,VWS V14.01,2013-07-15 02:13:00,
2013-07-14 22:18:00,80.7,67.8,30.22,NE,45,0.0,0.0,65,0.00,,---,0.00,VWS V14.01,2013-07-15 02:18:00,
2013-07-14 22:23:00,80.4,68.0,30.22,NE,45,0.0,0.0,66,0.00,,---,0.00,VWS V14.01,2013-07-15 02:23:00,
2013-07-14 22:28:00,80.2,68.3,30.22,NE,45,0.0,0.0,67,0.00,,---,0.00,VWS V14.01,2013-07-15 02:28:00,
2013-07-14 22:33:00,80.2,68.3,30.22,NE,45,0.0,0.0,67,0.00,,---,0.00,VWS V14.01,2013-07-15 02:33:00,
2013-07-14 22:38:00,79.8,67.9,30.22,ENE,68,0.0,0.0,67,0.00,,---,0.00,VWS V14.01,2013-07-15 02:38:00,
2013-07-14 22:43:00,79.7,67.8,30.22,ENE,68,0.0,0.0,67,0.00,,---,0.00,VWS V14.01,2013-07-15 02:43:00,
2013-07-14 22:48:00,79.5,68.0,30.22,ENE,68,0.0,0.0,68,0.00,,---,0.00,VWS V14.01,2013-07-15 02:48:00,
2013-07-14 22:53:00,79.5,68.0,30.22,ENE,68,0.0,0.0,68,0.00,,---,0.00,VWS V14.01,2013-07-15 02:53:00,
2013-07-14 22:58:00,79.3,67.8,30.22,ENE,68,0.0,0.0,68,0.00,,---,0.00,VWS V14.01,2013-07-15 02:58:00,
2013-07-14 23:03:00,79.1,68.1,30.22,ENE,68,0.0,0.0,69,0.00,,---,0.00,VWS V14.01,2013-07-15 03:03:00,
2013-07-14 23:08:00,79.1,68.1,30.22,ENE,68,0.0,0.0,69,0.00,,---,0.00,VWS V14.01,2013-07-15 03:08:00,
2013-07-14 23:13:00,79.1,68.1,30.22,ENE,68,0.0,0.0,69,0.00,,---,0.00,VWS V14.01,2013-07-15 03:13:00,
2013-07-14 23:18:00,78.9,67.9,30.22,ENE,68,0.0,0.0,69,0.00,,---,0.00,VWS V14.01,2013-07-15 03:18:00,
2013-07-14 23:23:00,78.8,68.2,30.23,ENE,68,0.0,0.0,70,0.00,,---,0.00,VWS V14.01,2013-07-15 03:23:00,
2013-07-14 23:28:00,78.6,68.0,30.22,ENE,68,0.0,0.0,70,0.00,,---,0.00,VWS V14.01,2013-07-15 03:28:00,
2013-07-14 23:33:00,78.6,68.0,30.23,ENE,68,0.0,0.0,70,0.00,,---,0.00,VWS V14.01,2013-07-15 03:33:00,
2013-07-14 23:38:00,78.6,68.0,30.23,ENE,68,0.0,0.0,70,0.00,,---,0.00,VWS V14.01,2013-07-15 03:38:00,
2013-07-14 23:43:00,78.4,68.2,30.23,ENE,68,0.0,0.0,71,0.00,,---,0.00,VWS V14.01,2013-07-15 03:43:00,
2013-07-14 23:48:00,78.4,67.8,30.23,ENE,68,0.0,0.0,70,0.00,,---,0.00,VWS V14.01,2013-07-15 03:48:00,
2013-07-14 23:53:00,78.4,67.8,30.23,ENE,68,0.0,0.0,70,0.00,,---,0.00,VWS V14.01,2013-07-15 03:53:00,
2013-07-14 23:58:00,78.2,67.6,30.23,ENE,68,0.0,0.0,70,0.00,,---,0.00,VWS V14.01,2013-07-15 03:58:00,